createdAt,value
2023-03-03T00:00:52.570Z,20.03
2023-03-03T00:03:20.794Z,18.43
2023-03-03T00:05:48.230Z,18.07
2023-03-03T00:08:16.082Z,17.63
2023-03-03T00:10:44.997Z,19.70
2023-03-03T00:13:19.624Z,20.03
2023-03-03T00:15:47.259Z,19.83
2023-03-03T00:18:19.652Z,17.77
2023-03-03T00:20:50.135Z,19.20
2023-03-03T00:23:24.786Z,19.70
2023-03-03T00:25:53.920Z,19.30
2023-03-03T00:28:21.309Z,19.10
2023-03-03T00:30:48.705Z,20.97
2023-03-03T00:33:32.516Z,22.10
2023-03-03T00:36:16.299Z,22.17
2023-03-03T00:38:43.979Z,21.07
2023-03-03T00:41:23.626Z,21.43
2023-03-03T00:43:51.313Z,20.80
2023-03-03T00:46:19.522Z,21.67
2023-03-03T00:48:47.737Z,21.50
2023-03-03T00:51:25.754Z,20.83
2023-03-03T00:53:53.573Z,21.60
2023-03-03T00:56:20.956Z,22.13
2023-03-03T00:58:48.385Z,21.43
2023-03-03T01:01:18.748Z,21.93
2023-03-03T01:03:50.007Z,21.37
2023-03-03T01:06:17.358Z,21.53
2023-03-03T01:08:44.738Z,20.53
2023-03-03T01:11:17.374Z,20.57
2023-03-03T01:13:46.518Z,20.80
2023-03-03T01:16:13.938Z,20.30
2023-03-03T01:18:42.049Z,23.90
2023-03-03T01:21:09.904Z,23.93
2023-03-03T01:23:37.204Z,21.13
2023-03-03T01:26:05.031Z,22.60
2023-03-03T01:28:33.537Z,22.60
2023-03-03T01:31:02.364Z,23.30
2023-03-03T01:33:31.645Z,24.03
2023-03-03T01:35:59.159Z,27.23
2023-03-03T01:38:26.721Z,27.60
2023-03-03T01:40:54.928Z,27.50
2023-03-03T01:43:22.387Z,28.40
2023-03-03T01:45:50.077Z,27.43
2023-03-03T01:48:23.811Z,29.77
2023-03-03T01:51:06.253Z,29.23
2023-03-03T01:53:42.352Z,31.20
2023-03-03T01:56:10.514Z,31.50
2023-03-03T01:58:40.647Z,31.23
2023-03-03T02:01:12.290Z,29.10
2023-03-03T02:03:40.133Z,30.37
2023-03-03T02:06:10.392Z,29.57
2023-03-03T02:08:59.276Z,31.20
2023-03-03T02:11:27.387Z,29.43
2023-03-03T02:13:54.979Z,29.50
2023-03-03T02:16:24.011Z,30.97
2023-03-03T02:18:51.429Z,33.43
2023-03-03T02:21:21.003Z,31.47
2023-03-03T02:23:54.166Z,29.43
2023-03-03T02:26:24.143Z,35.60
2023-03-03T02:28:56.925Z,37.23
2023-03-03T02:31:25.420Z,37.57
2023-03-03T02:33:55.283Z,42.10
2023-03-03T02:36:27.335Z,41.70
2023-03-03T02:39:08.014Z,39.43
2023-03-03T02:41:47.712Z,40.73
2023-03-03T02:44:16.665Z,34.40
2023-03-03T02:46:46.936Z,37.87
2023-03-03T02:49:16.259Z,32.80
2023-03-03T02:51:43.968Z,36.53
2023-03-03T02:54:12.564Z,35.97
2023-03-03T02:56:40.466Z,34.23
2023-03-03T02:59:07.858Z,37.20
2023-03-03T03:01:40.878Z,35.40
2023-03-03T03:04:14.455Z,33.17
2023-03-03T03:06:44.820Z,32.17
2023-03-03T03:09:14.545Z,31.17
2023-03-03T03:11:42.741Z,34.73
2023-03-03T03:14:11.677Z,33.10
2023-03-03T03:16:40.157Z,35.10
2023-03-03T03:19:07.809Z,32.53
2023-03-03T03:21:36.765Z,36.03
2023-03-03T03:24:06.195Z,29.97
2023-03-03T03:26:34.986Z,33.53
2023-03-03T03:29:03.559Z,34.20
2023-03-03T03:31:32.679Z,33.60
2023-03-03T03:34:00.625Z,34.70
2023-03-03T03:36:29.559Z,37.23
2023-03-03T03:38:56.937Z,37.03
2023-03-03T03:41:24.246Z,36.63
2023-03-03T03:43:51.736Z,34.93
2023-03-03T03:46:19.314Z,36.10
2023-03-03T03:48:46.997Z,33.17
2023-03-03T03:51:17.318Z,35.60
2023-03-03T03:53:45.604Z,35.93
2023-03-03T03:56:13.046Z,36.40
2023-03-03T03:58:42.233Z,33.03
2023-03-03T04:01:11.975Z,34.37
2023-03-03T04:03:44.780Z,35.27
2023-03-03T04:06:16.056Z,32.17
2023-03-03T04:08:43.471Z,31.47
2023-03-03T04:11:11.607Z,33.80
2023-03-03T04:13:38.935Z,30.20
2023-03-03T04:16:09.014Z,32.40
2023-03-03T04:18:36.538Z,32.23
2023-03-03T04:21:04.609Z,32.47
2023-03-03T04:23:32.696Z,34.27
2023-03-03T04:26:01.652Z,34.20
2023-03-03T04:28:28.973Z,33.03
2023-03-03T04:30:56.642Z,33.27
2023-03-03T04:33:25.527Z,32.53
2023-03-03T04:35:53.060Z,29.50
2023-03-03T04:38:21.728Z,34.27
2023-03-03T04:40:50.154Z,33.03
2023-03-03T04:43:18.363Z,33.13
2023-03-03T04:45:45.788Z,32.60
2023-03-03T04:48:13.347Z,35.27
2023-03-03T04:50:42.716Z,35.60
2023-03-03T04:53:10.769Z,33.87
2023-03-03T04:55:39.098Z,36.13
2023-03-03T04:58:07.660Z,38.60
2023-03-03T05:00:34.987Z,38.07
2023-03-03T05:03:02.888Z,35.03
2023-03-03T05:05:30.241Z,38.90
2023-03-03T05:07:57.968Z,35.50
2023-03-03T05:10:25.864Z,37.13
2023-03-03T05:12:53.127Z,33.43
2023-03-03T05:15:20.639Z,39.07
2023-03-03T05:17:48.139Z,37.17
2023-03-03T05:20:15.488Z,42.00
2023-03-03T05:22:42.886Z,37.23
2023-03-03T05:25:12.843Z,50.10
2023-03-03T05:27:40.398Z,45.77
2023-03-03T05:30:08.824Z,43.23
2023-03-03T05:32:36.268Z,39.50
2023-03-03T05:35:04.339Z,44.40
2023-03-03T05:37:32.010Z,42.50
2023-03-03T05:39:59.308Z,42.13
2023-03-03T05:42:27.014Z,42.63
2023-03-03T05:44:54.541Z,42.13
2023-03-03T05:47:21.871Z,39.90
2023-03-03T05:49:49.236Z,41.87
2023-03-03T05:52:16.521Z,37.37
2023-03-03T05:54:43.845Z,38.83
2023-03-03T05:57:11.232Z,50.88
2023-03-03T05:59:38.572Z,44.57
2023-03-03T06:02:06.006Z,43.10
2023-03-03T06:04:33.272Z,37.93
2023-03-03T06:07:00.624Z,44.07
2023-03-03T06:09:28.350Z,42.67
2023-03-03T06:11:55.628Z,40.83
2023-03-03T06:14:25.986Z,35.90
2023-03-03T06:16:54.278Z,34.60
2023-03-03T06:19:21.748Z,36.37
2023-03-03T06:21:49.051Z,35.90
2023-03-03T06:24:16.376Z,36.40
2023-03-03T06:26:43.812Z,37.10
2023-03-03T06:29:11.491Z,40.00
2023-03-03T06:31:38.862Z,36.93
2023-03-03T06:34:06.166Z,40.47
2023-03-03T06:36:33.515Z,40.27
2023-03-03T06:39:01.087Z,38.30
2023-03-03T06:41:28.538Z,38.07
2023-03-03T06:43:56.715Z,38.37
2023-03-03T06:46:24.024Z,35.93
2023-03-03T06:48:51.374Z,34.80
2023-03-03T06:51:24.526Z,33.93
2023-03-03T06:53:53.512Z,34.40
2023-03-03T06:56:20.797Z,34.73
2023-03-03T06:58:48.130Z,39.20
2023-03-03T07:01:17.309Z,37.67
2023-03-03T07:03:45.044Z,35.70
2023-03-03T07:06:24.720Z,34.87
2023-03-03T07:08:53.062Z,34.27
2023-03-03T07:11:22.031Z,34.47
2023-03-03T07:13:53.128Z,35.00
2023-03-03T07:16:22.565Z,36.47
2023-03-03T07:18:51.018Z,33.17
2023-03-03T07:21:20.591Z,30.97
2023-03-03T07:23:49.798Z,30.40
2023-03-03T07:26:30.580Z,31.97
2023-03-03T07:29:01.934Z,31.83
2023-03-03T07:31:32.191Z,32.57
2023-03-03T07:34:00.549Z,32.97
2023-03-03T07:36:29.965Z,33.10
2023-03-03T07:39:01.442Z,34.70
2023-03-03T07:41:30.803Z,32.93
2023-03-03T07:44:05.680Z,36.07
2023-03-03T07:46:46.168Z,33.60
2023-03-03T07:49:22.678Z,37.37
2023-03-03T07:51:54.158Z,35.63
2023-03-03T07:54:28.640Z,35.03
2023-03-03T07:57:08.251Z,35.77
2023-03-03T07:59:37.125Z,31.97
2023-03-03T08:02:08.326Z,30.60
2023-03-03T08:04:35.779Z,28.77
2023-03-03T08:07:03.286Z,31.60
2023-03-03T08:09:32.185Z,30.90
2023-03-03T08:12:01.070Z,31.03
2023-03-03T08:14:30.311Z,31.57
2023-03-03T08:17:00.517Z,30.07
2023-03-03T08:19:30.640Z,27.83
2023-03-03T08:22:01.683Z,30.73
2023-03-03T08:24:28.962Z,31.33
2023-03-03T08:26:56.229Z,31.40
2023-03-03T08:29:23.555Z,29.50
2023-03-03T08:31:50.894Z,30.87
2023-03-03T08:34:18.356Z,29.67
2023-03-03T08:36:47.344Z,29.77
2023-03-03T08:39:14.685Z,30.97
2023-03-03T08:41:44.259Z,30.40
2023-03-03T08:44:11.770Z,32.97
2023-03-03T08:46:39.148Z,31.63
2023-03-03T08:49:06.476Z,31.87
2023-03-03T08:51:34.846Z,31.57
2023-03-03T08:54:02.123Z,33.57
2023-03-03T08:56:29.373Z,32.87
2023-03-03T08:59:03.971Z,32.03
2023-03-03T09:01:35.497Z,32.87
2023-03-03T09:04:02.802Z,34.43
2023-03-03T09:06:30.514Z,32.87
2023-03-03T09:08:58.119Z,37.03
2023-03-03T09:11:27.729Z,34.13
2023-03-03T09:14:00.161Z,35.13
2023-03-03T09:16:28.230Z,35.50
2023-03-03T09:18:57.134Z,33.83
2023-03-03T09:21:26.899Z,30.77
2023-03-03T09:23:58.384Z,33.87
2023-03-03T09:26:28.500Z,32.77
2023-03-03T09:28:56.687Z,33.97
2023-03-03T09:31:28.675Z,34.87
2023-03-03T09:33:57.944Z,33.63
2023-03-03T09:36:38.744Z,35.13
2023-03-03T09:39:16.293Z,33.77
2023-03-03T09:41:57.199Z,35.33
2023-03-03T09:44:43.775Z,35.47
2023-03-03T09:47:14.464Z,37.13
2023-03-03T09:49:58.897Z,38.30
2023-03-03T09:52:28.536Z,34.87
2023-03-03T09:54:55.845Z,34.87
2023-03-03T09:57:34.629Z,34.73
2023-03-03T10:00:02.033Z,34.53
2023-03-03T10:02:48.173Z,33.87
2023-03-03T10:05:20.146Z,35.30
2023-03-03T10:08:19.931Z,33.70
2023-03-03T10:11:05.649Z,33.70
2023-03-03T10:13:53.229Z,32.77
2023-03-03T10:16:23.790Z,33.40
2023-03-03T10:19:09.917Z,35.20
2023-03-03T10:21:40.443Z,33.30
2023-03-03T10:24:22.980Z,33.00
2023-03-03T10:27:13.950Z,35.30
2023-03-03T10:30:00.792Z,33.20
2023-03-03T10:32:33.832Z,33.40
2023-03-03T10:35:24.285Z,34.10
2023-03-03T10:38:14.975Z,31.93
2023-03-03T10:40:48.344Z,32.50
2023-03-03T10:43:39.608Z,32.63
2023-03-03T10:46:12.903Z,33.93
2023-03-03T10:48:51.589Z,32.83
2023-03-03T10:51:36.848Z,32.57
2023-03-03T10:54:04.256Z,30.20
2023-03-03T10:56:52.148Z,33.80
2023-03-03T10:59:23.548Z,30.80
2023-03-03T11:01:57.969Z,35.10
2023-03-03T11:04:29.244Z,31.83
2023-03-03T11:06:56.558Z,30.90
2023-03-03T11:09:27.158Z,31.47
2023-03-03T11:11:59.882Z,31.07
2023-03-03T11:14:41.663Z,27.80
2023-03-03T11:17:09.153Z,30.13
2023-03-03T11:19:45.514Z,29.33
2023-03-03T11:22:18.943Z,29.07
2023-03-03T11:24:46.345Z,29.53
2023-03-03T11:27:16.856Z,29.53
2023-03-03T11:30:03.460Z,29.37
2023-03-03T11:32:32.150Z,32.33
2023-03-03T11:35:08.383Z,30.77
2023-03-03T11:37:44.583Z,32.17
2023-03-03T11:40:20.532Z,28.33
2023-03-03T11:42:52.968Z,31.00
2023-03-03T11:45:21.527Z,29.77
2023-03-03T11:48:00.820Z,29.50
2023-03-03T11:50:41.917Z,28.87
2023-03-03T11:53:25.542Z,31.20
2023-03-03T11:55:57.994Z,29.37
2023-03-03T11:58:25.472Z,26.53
2023-03-03T12:01:03.998Z,28.00
2023-03-03T12:03:35.848Z,26.40
2023-03-03T12:06:22.008Z,28.20
2023-03-03T12:09:07.492Z,26.07
2023-03-03T12:11:37.964Z,27.83
2023-03-03T12:14:18.085Z,27.37
2023-03-03T12:16:55.703Z,28.17
2023-03-03T12:19:34.926Z,26.17
2023-03-03T12:22:11.134Z,25.93
2023-03-03T12:24:41.523Z,25.17
2023-03-03T12:27:17.994Z,25.00
2023-03-03T12:29:54.090Z,24.70
2023-03-03T12:32:39.102Z,24.67
2023-03-03T12:35:24.110Z,25.30
2023-03-03T12:38:01.320Z,22.83
2023-03-03T12:40:35.810Z,23.73
2023-03-03T12:43:03.146Z,22.93
2023-03-03T12:45:33.697Z,23.03
2023-03-03T12:48:02.213Z,21.87
2023-03-03T12:50:37.489Z,24.37
2023-03-03T12:53:10.781Z,23.70
2023-03-03T12:55:41.113Z,22.93
2023-03-03T12:58:14.275Z,23.23
2023-03-03T13:00:52.046Z,25.37
2023-03-03T13:03:32.082Z,24.50
2023-03-03T13:05:59.690Z,21.90
2023-03-03T13:08:42.510Z,22.93
2023-03-03T13:11:22.331Z,22.80
2023-03-03T13:13:52.718Z,21.40
2023-03-03T13:16:40.582Z,23.57
2023-03-03T13:19:10.961Z,20.87
2023-03-03T13:21:42.712Z,21.57
2023-03-03T13:24:28.825Z,19.17
2023-03-03T13:27:01.192Z,18.73
2023-03-03T13:29:37.995Z,19.40
2023-03-03T13:32:13.095Z,17.13
2023-03-03T13:34:44.740Z,17.50
2023-03-03T13:37:22.258Z,20.27
2023-03-03T13:39:58.856Z,18.93
2023-03-03T13:42:38.549Z,18.90
2023-03-03T13:45:33.025Z,19.37
2023-03-03T13:48:22.926Z,15.83
2023-03-03T13:51:19.610Z,16.50
2023-03-03T13:53:58.386Z,16.70
2023-03-03T13:56:41.065Z,17.63
2023-03-03T13:59:17.192Z,18.23
2023-03-03T14:02:17.179Z,16.13
2023-03-03T14:04:48.354Z,16.60
2023-03-03T14:07:23.025Z,18.37
2023-03-03T14:09:59.871Z,18.27
2023-03-03T14:12:41.827Z,16.20
2023-03-03T14:15:26.212Z,17.47
2023-03-03T14:17:59.770Z,17.60
2023-03-03T14:20:35.372Z,17.27
2023-03-03T14:23:04.523Z,17.67
2023-03-03T14:25:51.324Z,17.43
2023-03-03T14:28:20.963Z,16.50
2023-03-03T14:30:49.489Z,15.53
2023-03-03T14:33:19.973Z,17.27
2023-03-03T14:35:59.705Z,17.23
2023-03-03T14:38:33.222Z,15.87
2023-03-03T14:41:10.103Z,15.17
2023-03-03T14:43:38.879Z,15.03
2023-03-03T14:46:25.303Z,15.73
2023-03-03T14:48:54.105Z,18.27
2023-03-03T14:51:24.405Z,17.13
2023-03-03T14:53:52.461Z,18.53
2023-03-03T14:56:28.103Z,19.00
2023-03-03T14:59:12.775Z,18.80
2023-03-03T15:01:40.292Z,18.60
2023-03-03T15:04:16.798Z,20.40
2023-03-03T15:06:48.684Z,20.13
2023-03-03T15:09:25.499Z,19.67
2023-03-03T15:11:53.728Z,19.63
2023-03-03T15:14:26.303Z,20.20
2023-03-03T15:16:53.761Z,20.07
2023-03-03T15:19:28.422Z,20.43
2023-03-03T15:21:59.594Z,20.67
2023-03-03T15:24:30.182Z,19.83
2023-03-03T15:27:16.824Z,19.43
2023-03-03T15:29:54.432Z,19.30
2023-03-03T15:32:21.910Z,20.50
2023-03-03T15:34:59.925Z,21.87
2023-03-03T15:37:27.442Z,23.53
2023-03-03T15:39:54.770Z,23.47
2023-03-03T15:42:36.420Z,21.93
2023-03-03T15:45:23.052Z,20.70
2023-03-03T15:47:57.056Z,22.43
2023-03-03T15:50:27.681Z,19.37
2023-03-03T15:53:06.602Z,20.23
2023-03-03T15:55:39.557Z,21.60
2023-03-03T15:58:13.047Z,22.40
2023-03-03T16:00:50.409Z,21.87
2023-03-03T16:03:20.476Z,20.87
2023-03-03T16:06:06.217Z,24.40
2023-03-03T16:08:39.599Z,21.67
2023-03-03T16:11:16.506Z,23.33
2023-03-03T16:14:04.695Z,22.47
2023-03-03T16:16:32.528Z,22.00
2023-03-03T16:19:04.034Z,24.33
2023-03-03T16:21:31.335Z,22.50
2023-03-03T16:24:07.348Z,20.57
2023-03-03T16:26:43.234Z,23.63
2023-03-03T16:29:19.922Z,23.67
2023-03-03T16:31:50.043Z,22.53
2023-03-03T16:34:22.914Z,23.27
2023-03-03T16:36:50.226Z,21.50
2023-03-03T16:39:23.244Z,21.97
2023-03-03T16:42:01.337Z,24.07
2023-03-03T16:44:34.689Z,21.73
2023-03-03T16:47:09.047Z,23.53
2023-03-03T16:49:55.356Z,21.87
2023-03-03T16:52:30.423Z,24.43
2023-03-03T16:55:00.207Z,22.70
2023-03-03T16:57:35.313Z,23.07
2023-03-03T17:00:05.907Z,24.00
2023-03-03T17:02:42.022Z,23.47
2023-03-03T17:05:15.458Z,23.30
2023-03-03T17:08:01.224Z,20.50
2023-03-03T17:10:30.700Z,21.83
2023-03-03T17:13:17.042Z,25.00
2023-03-03T17:16:05.181Z,21.70
2023-03-03T17:18:44.532Z,23.03
2023-03-03T17:21:26.873Z,23.97
2023-03-03T17:24:13.001Z,23.07
2023-03-03T17:26:40.307Z,23.30
2023-03-03T17:29:26.490Z,25.17
2023-03-03T17:32:02.309Z,24.67
2023-03-03T17:34:42.934Z,25.30
2023-03-03T17:37:10.247Z,29.07
2023-03-03T17:39:40.371Z,30.60
2023-03-03T17:42:30.445Z,27.57
2023-03-03T17:45:03.405Z,26.07
2023-03-03T17:47:36.916Z,26.37
2023-03-03T17:50:10.080Z,26.73
2023-03-03T17:52:55.953Z,26.67
2023-03-03T17:55:36.789Z,28.20
2023-03-03T17:58:19.514Z,28.77
2023-03-03T18:00:52.934Z,28.47
2023-03-03T18:03:23.748Z,27.27
2023-03-03T18:05:55.643Z,26.97
2023-03-03T18:08:26.383Z,24.83
2023-03-03T18:11:04.209Z,24.50
2023-03-03T18:13:35.205Z,28.00
2023-03-03T18:16:11.964Z,26.83
2023-03-03T18:18:49.285Z,27.87
2023-03-03T18:21:18.836Z,29.47
2023-03-03T18:23:47.829Z,27.50
2023-03-03T18:26:30.472Z,27.33
2023-03-03T18:29:12.380Z,31.13
2023-03-03T18:31:47.295Z,36.43
2023-03-03T18:34:20.591Z,35.13
2023-03-03T18:37:06.842Z,32.57
2023-03-03T18:39:36.878Z,35.77
2023-03-03T18:42:06.458Z,32.80
2023-03-03T18:44:33.890Z,34.60
2023-03-03T18:47:01.321Z,34.87
2023-03-03T18:49:55.769Z,34.93
2023-03-03T18:52:24.751Z,34.27
2023-03-03T18:55:04.405Z,32.20
2023-03-03T18:57:31.710Z,30.93
2023-03-03T19:00:18.437Z,29.40
2023-03-03T19:03:00.257Z,32.40
2023-03-03T19:05:35.432Z,30.97
2023-03-03T19:08:05.128Z,29.10
2023-03-03T19:10:44.877Z,31.03
2023-03-03T19:13:31.853Z,40.80
2023-03-03T19:16:22.462Z,28.70
2023-03-03T19:18:50.220Z,29.40
2023-03-03T19:21:22.927Z,39.60
2023-03-03T19:24:00.558Z,31.60
2023-03-03T19:26:30.955Z,33.57
2023-03-03T19:29:01.120Z,27.03
2023-03-03T19:31:47.207Z,29.63
2023-03-03T19:34:34.798Z,26.73
2023-03-03T19:37:05.963Z,21.17
2023-03-03T19:39:56.598Z,24.23
2023-03-03T19:42:30.814Z,22.47
2023-03-03T19:45:04.622Z,22.23
2023-03-03T19:47:44.212Z,19.60
2023-03-03T19:50:20.743Z,17.47
2023-03-03T19:53:03.383Z,19.33
2023-03-03T19:55:35.873Z,21.17
2023-03-03T19:58:11.518Z,18.27
2023-03-03T20:00:42.584Z,16.50
2023-03-03T20:03:19.667Z,15.30
2023-03-03T20:06:02.472Z,13.40
2023-03-03T20:08:36.035Z,13.37
2023-03-03T20:11:11.178Z,169.10
2023-03-03T20:13:57.377Z,16.93
2023-03-03T20:16:41.261Z,16.53
2023-03-03T20:19:08.562Z,21.33
2023-03-03T20:21:39.309Z,39.40
2023-03-03T20:24:07.048Z,19.00
2023-03-03T20:26:53.020Z,18.30
2023-03-03T20:29:39.641Z,16.80
2023-03-03T20:32:26.080Z,16.90
2023-03-03T20:35:01.473Z,15.80
2023-03-03T20:37:38.734Z,12.83
2023-03-03T20:40:11.766Z,11.40
2023-03-03T20:42:58.031Z,11.23
2023-03-03T20:45:31.430Z,11.07
2023-03-03T20:48:12.200Z,11.63
2023-03-03T20:50:52.089Z,14.07
2023-03-03T20:53:28.451Z,13.27
2023-03-03T20:56:06.681Z,13.97
2023-03-03T20:58:40.673Z,14.30
2023-03-03T21:01:09.379Z,12.90
2023-03-03T21:03:38.017Z,13.37
2023-03-03T21:06:12.229Z,10.53
2023-03-03T21:08:56.806Z,7.33
2023-03-03T21:11:44.476Z,4.60
2023-03-03T21:14:18.413Z,5.63
2023-03-03T21:16:45.828Z,3.87
2023-03-03T21:19:14.353Z,4.70
2023-03-03T21:21:42.635Z,4.60
2023-03-03T21:24:19.486Z,5.03
2023-03-03T21:26:54.663Z,4.57
2023-03-03T21:29:26.677Z,4.90
2023-03-03T21:32:05.126Z,3.90
2023-03-03T21:34:42.635Z,5.60
2023-03-03T21:37:12.352Z,5.72
2023-03-03T21:39:40.698Z,4.90
2023-03-03T21:42:08.475Z,5.23
2023-03-03T21:44:44.525Z,6.37
2023-03-03T21:47:14.858Z,5.20
2023-03-03T21:49:43.235Z,4.97
2023-03-03T21:52:11.265Z,4.87
2023-03-03T21:54:38.709Z,5.53
2023-03-03T21:57:06.146Z,4.63
2023-03-03T21:59:33.518Z,5.20
2023-03-03T22:02:00.956Z,4.33
2023-03-03T22:04:28.339Z,4.70
2023-03-03T22:06:55.850Z,5.20
2023-03-03T22:09:23.476Z,4.97
2023-03-03T22:11:52.020Z,5.13
2023-03-03T22:14:19.347Z,4.17
2023-03-03T22:16:46.689Z,4.90
2023-03-03T22:19:14.130Z,4.37
2023-03-03T22:21:41.513Z,4.23
2023-03-03T22:24:09.095Z,4.47
2023-03-03T22:26:36.455Z,4.37
2023-03-03T22:29:03.865Z,3.57
2023-03-03T22:31:31.255Z,5.10
2023-03-03T22:33:58.569Z,4.47
2023-03-03T22:36:25.967Z,4.43
2023-03-03T22:38:53.598Z,4.57
2023-03-03T22:41:21.269Z,4.33
2023-03-03T22:43:48.592Z,4.17
2023-03-03T22:46:19.191Z,4.63
2023-03-03T22:48:46.552Z,7.67
2023-03-03T22:51:13.878Z,3.83
2023-03-03T22:53:41.267Z,4.57
2023-03-03T22:56:08.615Z,5.17
2023-03-03T22:58:36.312Z,5.67
2023-03-03T23:01:04.739Z,6.83
2023-03-03T23:03:32.807Z,5.73
2023-03-03T23:06:00.326Z,6.13
2023-03-03T23:08:27.698Z,5.47
2023-03-03T23:10:55.297Z,5.90
2023-03-03T23:13:23.331Z,5.17
2023-03-03T23:15:50.804Z,5.93
2023-03-03T23:18:43.524Z,7.57
2023-03-03T23:21:11.034Z,5.40
2023-03-03T23:23:38.521Z,5.33
2023-03-03T23:26:05.947Z,5.10
2023-03-03T23:28:33.386Z,5.00
2023-03-03T23:31:00.801Z,4.33
2023-03-03T23:33:28.242Z,4.30
2023-03-03T23:35:55.688Z,4.57
2023-03-03T23:38:23.266Z,6.10
2023-03-03T23:40:50.797Z,4.27
2023-03-03T23:43:18.402Z,5.53
2023-03-03T23:45:45.893Z,5.23
2023-03-03T23:48:13.753Z,5.00
2023-03-03T23:50:41.174Z,4.60
2023-03-03T23:53:08.890Z,4.73
2023-03-03T23:55:37.573Z,4.10
2023-03-03T23:58:05.255Z,5.10
